Time;durP1;ratioP1;P1;durP2;ratioP2;P2;SDS_P1;SDS_P2;PMS_P1;PMS_P2;Temp;Humidity;BMP_temperature;BMP_pressure;BME280_temperature;BME280_humidity;BME280_pressure;Samples;Min_cycle;Max_cycle;Signal;HPM_P1;HPM_P2
2021/06/12 00:01:03;;;;;;;1.67;1.40;;;19.60;78.50;;;;;;10561619;28;20299;-26
2021/06/12 00:06:26;;;;;;;2.83;1.57;;;19.60;78.60;;;;;;10496017;28;20203;-28
2021/06/12 00:11:47;;;;;;;1.70;1.60;;;19.60;78.50;;;;;;10496006;28;20208;-26
2021/06/12 00:17:09;;;;;;;1.83;1.73;;;19.60;78.60;;;;;;10511288;28;20591;-25
2021/06/12 00:22:32;;;;;;;1.70;1.60;;;19.60;78.50;;;;;;10529920;28;20215;-26
2021/06/12 00:27:56;;;;;;;1.60;1.50;;;19.60;78.60;;;;;;10537594;28;20192;-26
2021/06/12 00:33:17;;;;;;;2.17;2.07;;;19.60;78.60;;;;;;10537047;28;20215;-26
2021/06/12 00:38:40;;;;;;;1.40;1.30;;;19.60;78.60;;;;;;10518820;28;20702;-29
2021/06/12 00:44:02;;;;;;;2.57;1.70;;;19.60;78.70;;;;;;10496185;28;20208;-25
2021/06/12 00:49:24;;;;;;;1.80;1.70;;;19.60;78.70;;;;;;10537773;28;20203;-28
2021/06/12 00:54:47;;;;;;;2.00;1.90;;;19.60;78.70;;;;;;10536255;28;20272;-26
2021/06/12 01:00:11;;;;;;;1.90;1.80;;;19.60;78.70;;;;;;10534751;28;64284;-27
2021/06/12 01:05:32;;;;;;;1.60;1.50;;;19.60;78.60;;;;;;10536928;28;20207;-25
2021/06/12 01:10:55;;;;;;;1.53;1.40;;;19.60;78.60;;;;;;10496535;28;20679;-25
2021/06/12 01:16:22;;;;;;;1.70;1.60;;;19.60;78.70;;;;;;10495653;28;20193;-25
2021/06/12 01:21:49;;;;;;;1.70;1.60;;;19.60;78.70;;;;;;10517929;28;20226;-26
2021/06/12 01:27:45;;;;;;;1.60;1.43;;;19.60;78.70;;;;;;10496139;28;20246;-26
2021/06/12 01:33:10;;;;;;;2.00;1.90;;;19.60;78.60;;;;;;10494924;28;20209;-26
2021/06/12 01:38:34;;;;;;;1.80;1.70;;;19.60;78.70;;;;;;10512796;28;20609;-25
2021/06/12 01:43:57;;;;;;;2.10;1.90;;;19.60;78.70;;;;;;10527507;28;20204;-27
2021/06/12 01:49:21;;;;;;;1.97;1.63;;;19.60;79.30;;;;;;10536771;28;20630;-26
2021/06/12 01:54:44;;;;;;;1.73;1.63;;;19.60;78.70;;;;;;10543796;28;20586;-27
2021/06/12 02:00:07;;;;;;;1.93;1.83;;;19.60;78.80;;;;;;10536143;28;20268;-26
2021/06/12 02:05:31;;;;;;;2.10;1.90;;;19.60;78.80;;;;;;10534449;28;20700;-26
2021/06/12 02:10:53;;;;;;;1.90;1.80;;;19.60;78.80;;;;;;10535216;28;20616;-25
2021/06/12 02:16:15;;;;;;;1.80;1.70;;;19.60;78.80;;;;;;10525865;28;20192;-26
2021/06/12 02:21:41;;;;;;;1.73;1.63;;;19.60;78.80;;;;;;10522201;28;20294;-26
2021/06/12 02:27:05;;;;;;;2.13;1.60;;;19.60;78.90;;;;;;10520675;28;20207;-25
2021/06/12 02:32:27;;;;;;;1.60;1.50;;;19.60;78.80;;;;;;10493196;28;20212;-27
2021/06/12 02:37:50;;;;;;;2.07;1.70;;;19.60;78.90;;;;;;10494037;28;20583;-27
2021/06/12 02:43:12;;;;;;;1.87;1.77;;;19.60;78.90;;;;;;10495278;28;20211;-25
2021/06/12 02:48:34;;;;;;;1.90;1.80;;;19.50;78.80;;;;;;10535519;28;20196;-27
2021/06/12 02:53:58;;;;;;;2.00;1.90;;;19.60;78.90;;;;;;10531994;28;20245;-26
2021/06/12 02:59:20;;;;;;;1.70;1.60;;;19.60;78.90;;;;;;10530810;28;20643;-25
2021/06/12 03:04:44;;;;;;;2.23;2.03;;;19.50;78.80;;;;;;10538155;28;20566;-27
2021/06/12 03:10:10;;;;;;;1.70;1.60;;;19.60;78.90;;;;;;10543724;28;20212;-26
2021/06/12 03:15:34;;;;;;;2.10;1.90;;;19.50;78.80;;;;;;10542944;28;20202;-27
2021/06/12 03:20:57;;;;;;;1.73;1.50;;;19.60;79.00;;;;;;10549391;28;20275;-26
2021/06/12 03:26:21;;;;;;;2.00;1.90;;;19.60;79.00;;;;;;10570312;28;20688;-27
2021/06/12 03:31:43;;;;;;;1.73;1.63;;;19.60;79.00;;;;;;10536646;28;20685;-26
2021/06/12 03:37:06;;;;;;;1.80;1.70;;;19.60;79.00;;;;;;10541772;28;20204;-26
2021/06/12 03:42:29;;;;;;;2.30;2.10;;;19.50;78.90;;;;;;10542414;28;20620;-28
2021/06/12 03:47:52;;;;;;;2.53;1.97;;;19.50;78.90;;;;;;10574610;28;20190;-26
2021/06/12 03:53:14;;;;;;;2.00;1.90;;;19.50;78.90;;;;;;10523578;28;20220;-26
2021/06/12 03:58:37;;;;;;;1.97;1.87;;;19.50;79.00;;;;;;10498948;28;20741;-26
2021/06/12 04:03:59;;;;;;;2.37;2.00;;;19.50;78.90;;;;;;10341373;28;20217;-26
2021/06/12 04:09:20;;;;;;;1.53;1.43;;;19.50;79.00;;;;;;10356626;28;20217;-26
2021/06/12 04:14:43;;;;;;;1.80;1.70;;;19.60;79.00;;;;;;10368067;28;20191;-25
2021/06/12 04:20:06;;;;;;;1.80;1.70;;;19.60;78.90;;;;;;10346730;28;20219;-26
2021/06/12 04:25:27;;;;;;;2.00;1.80;;;19.60;78.90;;;;;;10327667;28;20199;-26
2021/06/12 04:30:50;;;;;;;2.10;1.90;;;19.60;79.10;;;;;;10327304;28;20226;-26
2021/06/12 04:36:12;;;;;;;1.80;1.70;;;19.50;79.00;;;;;;10327775;28;20218;-26
2021/06/12 04:41:34;;;;;;;2.13;1.93;;;19.50;79.00;;;;;;10311222;28;20265;-25
2021/06/12 04:46:57;;;;;;;1.90;1.80;;;19.50;78.90;;;;;;10306180;28;20265;-27
2021/06/12 04:52:18;;;;;;;2.07;1.87;;;19.50;78.90;;;;;;10307123;28;20240;-26
2021/06/12 04:57:40;;;;;;;1.80;1.70;;;19.50;78.90;;;;;;10304628;28;20222;-26
2021/06/12 05:03:03;;;;;;;2.43;2.07;;;19.60;79.00;;;;;;10493089;22;20348;-29
2021/06/12 05:08:25;;;;;;;2.10;1.90;;;19.60;79.00;;;;;;10478176;28;20668;-25
2021/06/12 05:13:47;;;;;;;2.03;1.93;;;19.60;79.00;;;;;;10468684;28;20683;-27
2021/06/12 05:19:10;;;;;;;2.47;2.27;;;19.60;79.00;;;;;;10478802;28;20261;-26
2021/06/12 05:24:31;;;;;;;2.30;2.10;;;19.50;79.00;;;;;;10481527;28;21070;-29
2021/06/12 05:29:53;;;;;;;2.10;1.90;;;19.50;79.00;;;;;;10459745;28;20251;-25
2021/06/12 05:35:16;;;;;;;2.40;2.20;;;19.60;79.10;;;;;;10453132;28;20215;-26
2021/06/12 05:40:38;;;;;;;2.80;2.30;;;19.50;79.00;;;;;;10472070;28;20270;-27
2021/06/12 05:46:00;;;;;;;2.67;2.47;;;19.60;79.10;;;;;;10478532;28;20278;-25
2021/06/12 05:51:23;;;;;;;2.47;2.27;;;19.60;79.20;;;;;;10478476;28;20253;-26
2021/06/12 05:56:44;;;;;;;2.73;2.30;;;19.50;79.10;;;;;;10485213;28;20262;-25
2021/06/12 06:02:06;;;;;;;2.60;2.20;;;19.60;79.10;;;;;;10473969;28;20224;-27
2021/06/12 06:07:29;;;;;;;2.67;2.30;;;19.50;79.10;;;;;;10484512;28;20238;-25
2021/06/12 06:12:51;;;;;;;2.70;2.50;;;19.50;79.10;;;;;;10472053;28;20294;-27
2021/06/12 06:18:13;;;;;;;2.90;2.60;;;19.50;79.00;;;;;;10493032;28;20220;-25
2021/06/12 06:23:36;;;;;;;2.50;2.30;;;19.60;79.20;;;;;;10468873;28;20254;-26
2021/06/12 06:28:58;;;;;;;2.90;2.70;;;19.60;79.30;;;;;;10444313;28;20539;-27
2021/06/12 06:34:20;;;;;;;2.67;2.47;;;19.50;79.30;;;;;;10460725;28;20256;-28
2021/06/12 06:39:43;;;;;;;4.43;3.20;;;19.50;79.10;;;;;;10458573;28;20698;-25
2021/06/12 06:45:07;;;;;;;2.90;2.70;;;19.50;79.20;;;;;;10468747;28;20238;-27
2021/06/12 06:50:30;;;;;;;3.20;2.90;;;19.50;79.20;;;;;;10478353;28;20585;-25
2021/06/12 06:55:53;;;;;;;3.87;2.73;;;19.50;79.20;;;;;;10506989;28;20290;-29
2021/06/12 07:01:15;;;;;;;3.40;3.10;;;19.50;79.20;;;;;;10489599;28;20220;-26
2021/06/12 07:06:36;;;;;;;2.97;2.70;;;19.50;79.20;;;;;;10499545;28;20250;-26
2021/06/12 07:12:01;;;;;;;3.40;3.10;;;19.50;79.20;;;;;;10474071;28;20263;-25
2021/06/12 07:17:23;;;;;;;3.20;2.97;;;19.50;79.30;;;;;;10473206;28;20208;-27
2021/06/12 07:22:45;;;;;;;4.17;2.87;;;19.50;79.30;;;;;;10467258;28;20204;-25
2021/06/12 07:28:08;;;;;;;2.83;2.63;;;19.50;79.90;;;;;;10497562;28;20200;-25
2021/06/12 07:33:30;;;;;;;3.50;3.20;;;19.50;79.30;;;;;;10505392;28;20590;-25
2021/06/12 07:38:52;;;;;;;4.10;3.00;;;19.60;79.30;;;;;;10506733;28;20239;-25
2021/06/12 07:44:15;;;;;;;3.80;3.30;;;19.50;79.30;;;;;;10488039;28;20260;-25
2021/06/12 07:49:37;;;;;;;3.50;3.13;;;19.50;79.30;;;;;;10503802;28;20238;-25
2021/06/12 07:54:59;;;;;;;3.40;3.10;;;19.50;79.30;;;;;;10491535;28;20298;-25
2021/06/12 08:00:22;;;;;;;3.33;3.03;;;19.60;79.40;;;;;;10473961;28;20254;-26
2021/06/12 08:05:44;;;;;;;3.63;3.33;;;19.60;79.40;;;;;;10496353;28;20255;-28
2021/06/12 08:11:06;;;;;;;3.40;3.10;;;19.50;79.40;;;;;;10465443;28;20221;-25
2021/06/12 08:16:29;;;;;;;3.57;3.27;;;19.50;79.40;;;;;;10456734;28;20672;-25
2021/06/12 08:21:51;;;;;;;3.37;3.07;;;19.50;79.40;;;;;;10478619;28;20303;-28
2021/06/12 08:27:13;;;;;;;3.60;3.30;;;19.50;79.30;;;;;;10497647;28;20223;-25
2021/06/12 08:32:37;;;;;;;4.13;3.50;;;19.50;79.40;;;;;;10496232;28;20216;-25
2021/06/12 08:37:59;;;;;;;4.47;3.47;;;19.50;79.40;;;;;;10498290;28;20192;-26
2021/06/12 08:43:26;;;;;;;3.50;3.20;;;19.50;79.50;;;;;;10493128;28;20216;-25
2021/06/12 08:48:50;;;;;;;3.43;3.13;;;19.50;79.40;;;;;;10465038;28;20749;-25
2021/06/12 08:54:15;;;;;;;3.77;3.40;;;19.50;79.40;;;;;;10483053;28;20224;-25
2021/06/12 08:59:37;;;;;;;3.47;3.17;;;19.50;79.40;;;;;;10496538;28;20212;-26
2021/06/12 09:05:00;;;;;;;4.23;3.47;;;19.50;79.40;;;;;;10486577;28;20711;-25
2021/06/12 09:10:25;;;;;;;3.83;3.27;;;19.50;79.50;;;;;;10496786;28;20192;-25
2021/06/12 09:15:52;;;;;;;3.80;3.40;;;19.50;79.40;;;;;;10493583;28;20254;-25
2021/06/12 09:21:25;;;;;;;3.50;3.20;;;19.50;79.40;;;;;;10479035;28;20209;-25
2021/06/12 09:26:48;;;;;;;3.70;3.40;;;19.50;79.40;;;;;;10454819;28;20247;-26
2021/06/12 09:32:12;;;;;;;3.77;3.47;;;19.50;79.40;;;;;;10454328;28;20210;-27
2021/06/12 09:37:36;;;;;;;4.40;3.63;;;19.50;79.50;;;;;;10454514;28;20683;-26
2021/06/12 09:43:01;;;;;;;4.13;3.73;;;19.50;79.40;;;;;;10482339;28;20559;-25
2021/06/12 09:48:23;;;;;;;3.53;3.23;;;19.50;79.50;;;;;;10481317;28;20414;-25
2021/06/12 09:53:51;;;;;;;3.60;3.30;;;19.50;79.50;;;;;;10493572;28;20273;-28
2021/06/12 09:59:18;;;;;;;3.87;3.57;;;19.50;79.50;;;;;;10468034;28;20768;-25
2021/06/12 10:04:58;;;;;;;3.47;2.97;;;19.50;79.50;;;;;;10465360;28;20227;-27
2021/06/12 10:10:21;;;;;;;4.47;3.40;;;19.50;79.40;;;;;;10466616;28;20238;-29
2021/06/12 10:15:44;;;;;;;3.00;2.70;;;19.50;79.50;;;;;;10450942;28;20259;-27
2021/06/12 10:21:06;;;;;;;3.40;3.10;;;19.50;79.60;;;;;;10456616;28;20220;-26
2021/06/12 10:26:30;;;;;;;3.93;3.53;;;19.50;79.40;;;;;;10451900;28;20189;-26
2021/06/12 10:31:53;;;;;;;2.80;2.60;;;19.50;79.50;;;;;;10451940;28;20208;-26
2021/06/12 10:37:17;;;;;;;3.47;3.13;;;19.50;79.40;;;;;;10451984;28;20247;-26
2021/06/12 10:42:40;;;;;;;3.53;3.23;;;19.50;79.40;;;;;;10452664;28;20212;-26
2021/06/12 10:48:01;;;;;;;3.70;3.00;;;19.50;79.40;;;;;;10456883;28;20207;-25
2021/06/12 10:53:32;;;;;;;3.20;2.90;;;19.50;79.40;;;;;;10459439;28;20221;-28
2021/06/12 10:58:56;;;;;;;3.73;3.33;;;19.50;79.40;;;;;;10467984;28;20215;-26
2021/06/12 11:04:42;;;;;;;3.23;2.90;;;19.50;79.30;;;;;;10500018;22;20288;-26
2021/06/12 11:10:24;;;;;;;4.40;3.30;;;19.50;79.20;;;;;;10468150;28;20204;-26
2021/06/12 11:15:47;;;;;;;3.10;2.80;;;19.50;79.80;;;;;;10454375;28;20217;-26
2021/06/12 11:21:10;;;;;;;3.80;2.80;;;19.50;79.40;;;;;;10468680;28;20572;-27
2021/06/12 11:26:57;;;;;;;3.30;2.70;;;19.50;79.30;;;;;;10478912;28;20221;-29
2021/06/12 11:32:29;;;;;;;3.00;2.73;;;19.50;79.20;;;;;;10485724;28;20236;-26
2021/06/12 11:37:52;;;;;;;3.03;2.73;;;19.50;79.10;;;;;;10459284;28;20198;-26
2021/06/12 11:43:14;;;;;;;4.80;2.50;;;19.50;79.10;;;;;;10458623;28;20617;-27
2021/06/12 11:48:40;;;;;;;3.17;2.83;;;19.50;79.10;;;;;;10468123;28;20201;-26
2021/06/12 11:54:05;;;;;;;2.83;2.53;;;19.50;79.00;;;;;;10489335;28;20213;-26
2021/06/12 11:59:28;;;;;;;2.43;2.23;;;19.50;79.00;;;;;;10469773;28;20200;-26
2021/06/12 12:04:51;;;;;;;2.67;2.10;;;19.50;79.00;;;;;;10492714;28;20233;-26
2021/06/12 12:10:13;;;;;;;2.53;2.33;;;19.50;79.00;;;;;;10491670;28;20184;-26
2021/06/12 12:15:37;;;;;;;2.40;2.20;;;19.50;78.90;;;;;;10485827;28;20586;-26
2021/06/12 12:21:00;;;;;;;3.77;2.50;;;19.50;78.80;;;;;;10483384;28;20220;-25
2021/06/12 12:26:22;;;;;;;2.53;2.33;;;19.50;78.80;;;;;;10458509;28;20761;-27
2021/06/12 12:31:46;;;;;;;3.57;2.20;;;19.50;78.80;;;;;;10456379;28;20193;-28
2021/06/12 12:37:18;;;;;;;2.20;2.00;;;19.50;78.70;;;;;;10455738;28;20197;-26
2021/06/12 12:42:39;;;;;;;2.30;2.10;;;19.50;78.70;;;;;;10455678;28;20288;-26
2021/06/12 12:48:01;;;;;;;2.27;1.93;;;19.50;78.60;;;;;;10458772;28;20196;-26
2021/06/12 12:53:24;;;;;;;2.30;2.00;;;19.50;78.50;;;;;;10455451;28;20205;-28
2021/06/12 12:58:50;;;;;;;3.33;1.90;;;19.50;78.40;;;;;;10455536;28;20216;-26
2021/06/12 13:04:13;;;;;;;2.73;2.10;;;19.50;78.40;;;;;;10454790;28;20213;-26
2021/06/12 13:09:37;;;;;;;3.30;1.93;;;19.50;78.40;;;;;;10455129;28;20190;-26
2021/06/12 13:15:01;;;;;;;2.60;1.80;;;19.40;78.20;;;;;;10481431;28;20697;-27
2021/06/12 13:20:24;;;;;;;2.00;1.80;;;19.40;78.20;;;;;;10479820;28;20225;-27
2021/06/12 13:25:47;;;;;;;3.00;2.10;;;19.50;78.20;;;;;;10495309;28;20564;-26
2021/06/12 13:31:12;;;;;;;2.60;2.33;;;19.40;78.00;;;;;;10497104;28;20196;-26
2021/06/12 13:36:34;;;;;;;2.27;1.80;;;19.50;78.10;;;;;;10494951;28;20676;-36
2021/06/12 13:42:08;;;;;;;2.37;1.90;;;19.50;78.00;;;;;;10495171;28;20220;-26
2021/06/12 13:47:29;;;;;;;2.13;1.60;;;19.50;78.00;;;;;;10461433;28;20592;-27
2021/06/12 13:52:51;;;;;;;2.77;1.97;;;19.40;78.00;;;;;;10459056;28;20216;-28
2021/06/12 13:58:14;;;;;;;4.17;1.60;;;19.50;77.90;;;;;;10464119;28;20200;-26
2021/06/12 14:03:36;;;;;;;3.20;1.80;;;19.40;77.90;;;;;;10493755;28;20212;-28
2021/06/12 14:08:58;;;;;;;3.47;1.73;;;19.50;77.90;;;;;;10482942;28;20196;-26
2021/06/12 14:14:21;;;;;;;2.60;2.00;;;19.50;77.90;;;;;;10458337;28;20221;-26
2021/06/12 14:19:45;;;;;;;2.03;1.83;;;19.50;77.90;;;;;;10456945;28;20255;-26
2021/06/12 14:25:08;;;;;;;1.87;1.57;;;19.40;77.70;;;;;;10452220;28;20217;-28
2021/06/12 14:30:31;;;;;;;3.07;1.60;;;19.50;77.80;;;;;;10454272;28;20540;-26
2021/06/12 14:35:53;;;;;;;2.50;1.53;;;19.50;77.80;;;;;;10493320;28;20282;-26
2021/06/12 14:41:14;;;;;;;1.63;1.53;;;19.50;77.80;;;;;;10493682;28;20231;-26
2021/06/12 14:46:37;;;;;;;2.80;1.77;;;19.50;77.90;;;;;;10493318;28;20196;-27
2021/06/12 14:51:59;;;;;;;1.93;1.60;;;19.50;77.70;;;;;;10490478;28;20242;-25
2021/06/12 14:57:21;;;;;;;1.93;1.60;;;19.50;77.90;;;;;;10487194;28;20204;-25
2021/06/12 15:02:45;;;;;;;1.83;1.50;;;19.50;77.80;;;;;;10498879;28;20729;-25
2021/06/12 15:08:07;;;;;;;2.07;1.60;;;19.50;77.80;;;;;;10501876;28;20188;-26
2021/06/12 15:13:28;;;;;;;1.97;1.47;;;19.50;77.70;;;;;;10501362;28;20212;-25
2021/06/12 15:18:52;;;;;;;1.67;1.30;;;19.50;77.80;;;;;;10500982;28;20211;-25
2021/06/12 15:24:13;;;;;;;2.40;1.60;;;19.50;77.80;;;;;;10458792;28;20221;-26
2021/06/12 15:29:35;;;;;;;1.93;1.50;;;19.50;77.80;;;;;;10459526;28;20228;-29
2021/06/12 15:34:58;;;;;;;1.77;1.53;;;19.50;77.80;;;;;;10459441;28;20213;-26
2021/06/12 15:40:20;;;;;;;2.73;1.63;;;19.50;77.70;;;;;;10464781;28;20212;-26
2021/06/12 15:45:42;;;;;;;2.27;1.37;;;19.50;77.70;;;;;;10480221;28;20575;-26
2021/06/12 15:51:05;;;;;;;1.83;1.30;;;19.50;77.60;;;;;;10500212;28;20197;-27
2021/06/12 15:56:26;;;;;;;1.70;1.47;;;19.50;77.60;;;;;;10499086;28;20849;-27
2021/06/12 16:01:48;;;;;;;1.40;1.30;;;19.50;77.40;;;;;;10498158;28;20617;-27
2021/06/12 16:07:11;;;;;;;2.30;1.50;;;19.50;77.50;;;;;;10489428;28;20204;-27
2021/06/12 16:12:35;;;;;;;2.30;1.40;;;19.50;77.40;;;;;;10482642;28;20235;-26
2021/06/12 16:17:56;;;;;;;2.93;1.33;;;19.50;77.40;;;;;;10496577;28;20266;-27
2021/06/12 16:23:19;;;;;;;2.83;1.40;;;19.50;77.40;;;;;;10463800;28;20216;-26
2021/06/12 16:28:41;;;;;;;1.60;1.50;;;19.50;77.30;;;;;;10456910;28;20193;-27
2021/06/12 16:34:03;;;;;;;3.73;1.40;;;19.50;77.30;;;;;;10456349;28;20213;-25
2021/06/12 16:39:25;;;;;;;3.03;1.53;;;19.50;77.30;;;;;;10476577;28;20687;-26
2021/06/12 16:44:47;;;;;;;2.80;1.40;;;19.50;77.20;;;;;;10496343;28;20227;-26
2021/06/12 16:50:11;;;;;;;2.33;1.40;;;19.50;77.30;;;;;;10497561;28;20571;-26
2021/06/12 16:55:57;;;;;;;2.40;1.37;;;19.50;77.30;;;;;;10496968;28;20702;-28
2021/06/12 17:01:21;;;;;;;1.20;1.10;;;19.50;77.20;;;;;;10496957;28;20212;-27
2021/06/12 17:06:42;;;;;;;3.07;1.70;;;19.50;77.30;;;;;;10524476;22;20271;-25
2021/06/12 17:12:09;;;;;;;2.40;1.50;;;19.50;77.20;;;;;;10496958;28;20196;-26
2021/06/12 17:17:30;;;;;;;2.53;1.40;;;19.50;77.20;;;;;;10455434;28;20196;-26
2021/06/12 17:22:52;;;;;;;1.40;1.20;;;19.50;77.30;;;;;;10459508;28;20216;-25
2021/06/12 17:28:15;;;;;;;3.77;1.43;;;19.40;77.10;;;;;;10454499;28;20205;-26
2021/06/12 17:33:36;;;;;;;2.90;1.60;;;19.50;77.10;;;;;;10453920;28;20209;-25
2021/06/12 17:38:58;;;;;;;1.50;1.23;;;19.50;77.10;;;;;;10454007;28;20246;-26
2021/06/12 17:44:21;;;;;;;2.67;1.50;;;19.40;77.00;;;;;;10465037;28;20733;-25
2021/06/12 17:49:42;;;;;;;3.10;1.40;;;19.50;77.10;;;;;;10416279;28;20198;-26
2021/06/12 17:55:06;;;;;;;3.73;1.37;;;19.50;77.10;;;;;;10437570;28;20221;-25
2021/06/12 18:00:29;;;;;;;3.50;1.53;;;19.50;77.10;;;;;;10412650;28;20213;-25
2021/06/12 18:05:51;;;;;;;3.63;1.83;;;19.50;77.00;;;;;;10412041;28;20782;-25
2021/06/12 18:11:12;;;;;;;3.43;1.40;;;19.40;77.00;;;;;;10412356;28;20743;-26
2021/06/12 18:16:35;;;;;;;2.73;1.47;;;19.40;76.90;;;;;;10430242;28;20213;-27
2021/06/12 18:21:57;;;;;;;2.23;1.70;;;19.50;77.00;;;;;;10428185;28;20228;-26
2021/06/12 18:27:18;;;;;;;3.07;1.60;;;19.50;76.90;;;;;;10411295;28;20197;-25
2021/06/12 18:32:41;;;;;;;2.37;1.53;;;19.40;76.80;;;;;;10410762;28;20613;-25
2021/06/12 18:38:05;;;;;;;4.50;1.50;;;19.50;76.90;;;;;;10439030;28;20587;-26
2021/06/12 18:43:26;;;;;;;2.57;1.70;;;19.50;76.90;;;;;;10451753;28;20225;-25
2021/06/12 18:48:49;;;;;;;2.77;1.93;;;19.40;76.70;;;;;;10452028;28;20201;-28
2021/06/12 18:54:11;;;;;;;3.80;1.87;;;19.40;76.80;;;;;;10451712;28;20217;-25
2021/06/12 18:59:32;;;;;;;2.43;1.50;;;19.40;76.80;;;;;;10451792;28;20228;-25
2021/06/12 19:04:55;;;;;;;2.50;1.40;;;19.40;76.80;;;;;;10453642;28;20225;-24
2021/06/12 19:10:19;;;;;;;3.77;1.83;;;19.40;76.80;;;;;;10451659;28;20662;-25
2021/06/12 19:15:41;;;;;;;1.60;1.50;;;19.40;76.80;;;;;;10452207;28;20209;-26
2021/06/12 19:21:04;;;;;;;2.90;1.73;;;19.40;76.80;;;;;;10452461;28;20228;-26
2021/06/12 19:26:25;;;;;;;1.83;1.70;;;19.40;76.70;;;;;;10451381;28;20209;-25
2021/06/12 19:31:47;;;;;;;3.87;1.83;;;19.40;76.80;;;;;;10450158;28;20231;-26
2021/06/12 19:37:19;;;;;;;3.17;1.77;;;19.50;76.80;;;;;;10450433;28;20236;-25
2021/06/12 19:42:42;;;;;;;2.67;1.87;;;19.40;76.80;;;;;;10469692;28;20240;-25
2021/06/12 19:48:05;;;;;;;3.00;1.63;;;19.40;76.70;;;;;;10453651;28;20283;-27
2021/06/12 19:53:37;;;;;;;2.57;2.00;;;19.40;76.40;;;;;;10449049;28;20588;-25
2021/06/12 19:58:58;;;;;;;4.40;1.70;;;19.40;76.50;;;;;;10457895;28;20279;-29
2021/06/12 20:04:21;;;;;;;5.27;1.77;;;19.40;76.40;;;;;;10457633;28;20225;-26
2021/06/12 20:09:45;;;;;;;4.03;1.90;;;19.40;76.40;;;;;;10457543;28;20189;-25
2021/06/12 20:15:07;;;;;;;4.80;2.10;;;19.40;76.30;;;;;;10449036;28;20303;-25
2021/06/12 20:20:29;;;;;;;3.20;1.60;;;19.40;76.30;;;;;;10439449;28;20213;-25
2021/06/12 20:25:54;;;;;;;2.13;1.57;;;19.40;76.20;;;;;;10415590;28;20218;-25
2021/06/12 20:31:15;;;;;;;2.53;1.80;;;19.40;76.40;;;;;;10415087;28;20186;-25
2021/06/12 20:36:37;;;;;;;2.70;1.90;;;19.40;76.30;;;;;;10423773;28;20217;-26
2021/06/12 20:42:00;;;;;;;3.63;1.77;;;19.40;76.20;;;;;;10455087;28;20256;-25
2021/06/12 20:47:22;;;;;;;2.63;2.03;;;19.40;76.30;;;;;;10456744;28;20685;-28
2021/06/12 20:52:43;;;;;;;4.00;1.90;;;19.40;76.20;;;;;;10453325;28;20583;-25
2021/06/12 20:58:06;;;;;;;5.10;1.80;;;19.40;76.20;;;;;;10414635;28;20197;-26
2021/06/12 21:03:29;;;;;;;2.80;1.57;;;19.40;76.30;;;;;;10414058;28;20593;-23
2021/06/12 21:08:50;;;;;;;4.83;1.70;;;19.40;76.30;;;;;;10414541;28;20248;-25
2021/06/12 21:14:13;;;;;;;2.27;1.60;;;19.40;76.30;;;;;;10451692;28;20205;-25
2021/06/12 21:19:35;;;;;;;3.77;1.87;;;19.40;76.20;;;;;;10454889;28;20221;-25
2021/06/12 21:24:56;;;;;;;3.10;1.70;;;19.40;76.10;;;;;;10453419;28;20221;-26
2021/06/12 21:30:20;;;;;;;2.17;1.60;;;19.40;76.10;;;;;;10421126;28;20273;-25
2021/06/12 21:35:41;;;;;;;4.83;2.03;;;19.40;76.20;;;;;;10442379;28;20231;-26
2021/06/12 21:41:05;;;;;;;3.20;1.60;;;19.40;76.10;;;;;;10429965;28;20224;-28
2021/06/12 21:46:28;;;;;;;2.80;1.67;;;19.40;76.00;;;;;;10411796;28;20271;-27
2021/06/12 21:51:50;;;;;;;3.17;1.80;;;19.40;76.00;;;;;;10430130;28;20192;-28
2021/06/12 21:57:12;;;;;;;4.50;1.73;;;19.40;75.90;;;;;;10442746;28;20291;-25
2021/06/12 22:02:35;;;;;;;3.33;2.30;;;19.40;75.90;;;;;;10445439;28;20719;-25
2021/06/12 22:07:56;;;;;;;3.27;2.00;;;19.40;75.90;;;;;;10458104;28;20770;-25
2021/06/12 22:13:18;;;;;;;3.50;1.77;;;19.40;76.10;;;;;;10451504;28;20213;-26
2021/06/12 22:18:41;;;;;;;2.20;1.67;;;19.40;76.10;;;;;;10453426;28;20214;-27
2021/06/12 22:24:03;;;;;;;3.17;1.83;;;19.40;76.20;;;;;;10426930;28;20225;-25
2021/06/12 22:29:27;;;;;;;2.97;2.03;;;19.40;76.00;;;;;;10445594;28;20204;-25
2021/06/12 22:34:50;;;;;;;3.27;2.03;;;19.40;76.00;;;;;;10452233;28;20232;-25
2021/06/12 22:40:12;;;;;;;3.07;2.17;;;19.40;75.90;;;;;;10452351;28;20678;-26
2021/06/12 22:45:34;;;;;;;3.50;1.97;;;19.40;75.90;;;;;;10445784;28;20224;-26
2021/06/12 22:50:58;;;;;;;2.60;2.00;;;19.40;75.80;;;;;;10452511;28;20271;-25
2021/06/12 22:56:22;;;;;;;2.67;1.80;;;19.40;75.80;;;;;;10452438;28;20213;-25
2021/06/12 23:01:44;;;;;;;5.10;2.17;;;19.40;75.70;;;;;;10451805;28;20209;-27
2021/06/12 23:07:07;;;;;;;3.57;2.33;;;19.40;75.80;;;;;;10541681;22;20733;-27
2021/06/12 23:12:29;;;;;;;5.13;2.27;;;19.40;75.60;;;;;;10497180;28;20200;-27
2021/06/12 23:17:50;;;;;;;4.97;2.23;;;19.40;75.50;;;;;;10452275;28;20204;-28
2021/06/12 23:23:13;;;;;;;5.77;2.53;;;19.40;75.50;;;;;;10489759;28;20217;-28
2021/06/12 23:28:35;;;;;;;3.70;2.30;;;19.40;75.50;;;;;;10500091;28;20258;-27
2021/06/12 23:33:57;;;;;;;5.90;2.80;;;19.40;75.40;;;;;;10499886;28;20212;-27
2021/06/12 23:39:20;;;;;;;4.83;2.47;;;19.40;75.40;;;;;;10468389;28;20199;-29
2021/06/12 23:44:42;;;;;;;5.17;2.73;;;19.40;75.40;;;;;;10458766;28;20274;-28
2021/06/12 23:50:05;;;;;;;3.73;2.50;;;19.40;75.40;;;;;;10489952;28;20204;-27
2021/06/12 23:55:28;;;;;;;5.67;2.73;;;19.40;75.30;;;;;;10490411;28;20222;-27
